ZUCKZSAM

Guest
Details From ZUCK - Jiangbei
To ZSAM - Gaoqi
Flight Number -
Tags Generated
Created
Modified
Stats Distance 687 nm / 1,273 km
Max Altitude 0 ft / 0 m
Waypoints 3
Social Downloads 1
Likes 0
Share VATSIM

Download

Looking for another format? Having issues loading an existing format? Contact us
Advertisement - Login to hide

Notes

Generated

Route

ZUCK WF ZSAM

ID Type Via Altitude Latitude Longitude Leg Dist Tot Dist Heading (true) Name
O ZUCK APT - 0 ft / 0 m 29.70539˚ 106.63686˚ - 0 nm - -
WF NDB - 0 ft / 0 m 24.56667˚ 118.01667˚ 681 nm 681 nm 114° / 119° XINGLIN NDB
O ZSAM APT - 0 ft / 0 m 24.53459˚ 118.11452˚ 5 nm 687 nm 110° / 110° -

Altitude Profile

Advertisement - Login to hide

Weather


0- 5 10 15 20 25 30 35+ Temperature / ° C

Clouds and Precipitation
Forecast for 2017-12-14 12:00 UTC. Updated an hour ago

Ground ~20,000 ft ~40,000 ft Winds

ZUCK

Details ICAO ZUCK (CKG)
Name JIANGBEI
Region China
Timezone Asia/Chongqing (UTC+8.0)
Stats Elevation 1,365 ft / 416 m (AMSL)
Location 29.719217° 106.641677°
Runways 1
Magnetic Variation 2.487° W

METAR

ZUCK 140800Z 07003MPS 030V100 9999 FEW033 10/04 Q1019 NOSIG

Decode

TAF

Not found

Departure Runways

ID Width Length Bearing (true) Bearing (mag) Surface Threshold Offset Overrun Length
02 148 ft / 45 m 10,543 ft / 3,213 m 16.82° 19.31° Concrete 0 ft / 0 m 197 ft / 60 m
20 148 ft / 45 m 10,543 ft / 3,213 m 196.82° 199.31° Concrete 0 ft / 0 m 197 ft / 60 m

ZSAM

Details ICAO ZSAM (XMN)
Name GAOQI
Region China
Timezone Asia/Shanghai (UTC+8.0)
Stats Elevation 59 ft / 18 m (AMSL)
Location 24.544000° 118.127742°
Runways 1
Magnetic Variation 3.902° W

METAR

ZSAM 140800Z 02005MPS CAVOK 19/12 Q1019 NOSIG

Decode

TAF

Not found

Destination Runways

ID Width Length Bearing (true) Bearing (mag) Surface Threshold Offset Overrun Length
05 148 ft / 45 m 11,147 ft / 3,398 m 51.96° 55.86° Asphalt 490 ft / 149 m 110 ft / 34 m
23 148 ft / 45 m 11,147 ft / 3,398 m 231.97° 235.87° Asphalt 660 ft / 201 m 190 ft / 58 m

Approach Navaids

Runway Type Ident Frequency Range Bearing (true) Bearing (mag) Slope Elevation
05 Localiser IWF 110.30 MHz 18 nm / 33 km 51.44° 55.34° - 85 ft / 26 m (AMSL)
05 Glidescope IWF 110.30 MHz 10 nm / 19 km 51.96° 55.87° 3.00° 85 ft / 26 m (AMSL)
05 DME IWF 110.30 MHz 18 nm / 33 km - - - 85 ft / 26 m (AMSL)
23 Localiser IKK 109.70 MHz 18 nm / 33 km 231.94° 235.84° - 85 ft / 26 m (AMSL)
23 Glidescope IKK 109.70 MHz 10 nm / 19 km 231.96° 235.87° 3.00° 85 ft / 26 m (AMSL)
23 DME IKK 109.70 MHz 18 nm / 33 km - - - 85 ft / 26 m (AMSL)

Popular Alternatives